sensor_id;sensor_type;location;lat;lon;timestamp;pressure;altitude;pressure_sealevel;temperature;humidity
12969;BME280;6549;53.128;8.182;2024-02-28T00:02:23;101690.88;;;2.93;100.00
12969;BME280;6549;53.128;8.182;2024-02-28T00:05:23;101684.31;;;2.85;100.00
12969;BME280;6549;53.128;8.182;2024-02-28T00:08:24;101697.19;;;2.80;100.00
12969;BME280;6549;53.128;8.182;2024-02-28T00:11:24;101703.31;;;2.63;100.00
12969;BME280;6549;53.128;8.182;2024-02-28T00:14:24;101698.53;;;2.60;100.00
12969;BME280;6549;53.128;8.182;2024-02-28T00:17:25;101691.84;;;2.66;100.00
12969;BME280;6549;53.128;8.182;2024-02-28T00:20:25;101688.25;;;2.57;100.00
12969;BME280;6549;53.128;8.182;2024-02-28T00:23:27;101673.66;;;2.44;100.00
12969;BME280;6549;53.128;8.182;2024-02-28T00:26:27;101661.56;;;2.28;100.00
12969;BME280;6549;53.128;8.182;2024-02-28T00:29:28;101666.94;;;2.19;100.00
12969;BME280;6549;53.128;8.182;2024-02-28T00:32:28;101668.25;;;2.08;100.00
12969;BME280;6549;53.128;8.182;2024-02-28T00:35:32;101679.00;;;2.13;100.00
12969;BME280;6549;53.128;8.182;2024-02-28T00:38:33;101682.03;;;2.12;100.00
12969;BME280;6549;53.128;8.182;2024-02-28T00:41:34;101682.56;;;2.22;100.00
12969;BME280;6549;53.128;8.182;2024-02-28T00:44:34;101684.00;;;2.20;100.00
12969;BME280;6549;53.128;8.182;2024-02-28T00:47:34;101678.69;;;2.15;100.00
12969;BME280;6549;53.128;8.182;2024-02-28T00:50:35;101677.81;;;2.06;100.00
12969;BME280;6549;53.128;8.182;2024-02-28T00:53:35;101679.47;;;1.93;100.00
12969;BME280;6549;53.128;8.182;2024-02-28T00:56:36;101689.19;;;1.94;100.00
12969;BME280;6549;53.128;8.182;2024-02-28T00:59:36;101692.50;;;1.91;100.00
12969;BME280;6549;53.128;8.182;2024-02-28T01:02:37;101688.59;;;1.97;100.00
12969;BME280;6549;53.128;8.182;2024-02-28T01:05:37;101680.94;;;1.99;100.00
12969;BME280;6549;53.128;8.182;2024-02-28T01:08:37;101681.19;;;1.89;100.00
12969;BME280;6549;53.128;8.182;2024-02-28T01:11:38;101670.94;;;1.86;100.00
12969;BME280;6549;53.128;8.182;2024-02-28T01:14:38;101672.06;;;1.71;100.00
12969;BME280;6549;53.128;8.182;2024-02-28T01:17:38;101661.53;;;1.70;100.00
12969;BME280;6549;53.128;8.182;2024-02-28T01:20:39;101661.34;;;1.66;100.00
12969;BME280;6549;53.128;8.182;2024-02-28T01:23:39;101684.13;;;1.52;100.00
12969;BME280;6549;53.128;8.182;2024-02-28T01:26:39;101685.34;;;1.59;100.00
12969;BME280;6549;53.128;8.182;2024-02-28T01:29:40;101675.41;;;1.55;100.00
12969;BME280;6549;53.128;8.182;2024-02-28T01:32:40;101675.91;;;1.57;100.00
12969;BME280;6549;53.128;8.182;2024-02-28T01:35:41;101675.41;;;1.55;100.00
12969;BME280;6549;53.128;8.182;2024-02-28T01:38:41;101681.13;;;1.53;100.00
12969;BME280;6549;53.128;8.182;2024-02-28T01:41:50;101682.94;;;1.58;100.00
12969;BME280;6549;53.128;8.182;2024-02-28T01:44:51;101685.84;;;1.48;100.00
12969;BME280;6549;53.128;8.182;2024-02-28T01:47:51;101685.34;;;1.46;100.00
12969;BME280;6549;53.128;8.182;2024-02-28T01:50:51;101686.25;;;1.55;100.00
12969;BME280;6549;53.128;8.182;2024-02-28T01:53:53;101689.44;;;1.57;100.00
12969;BME280;6549;53.128;8.182;2024-02-28T01:56:54;101700.78;;;1.59;100.00
12969;BME280;6549;53.128;8.182;2024-02-28T01:59:54;101696.38;;;1.63;100.00
12969;BME280;6549;53.128;8.182;2024-02-28T02:02:56;101700.19;;;1.62;100.00
12969;BME280;6549;53.128;8.182;2024-02-28T02:05:56;101692.44;;;1.55;100.00
12969;BME280;6549;53.128;8.182;2024-02-28T02:08:56;101692.56;;;1.50;100.00
12969;BME280;6549;53.128;8.182;2024-02-28T02:11:57;101681.72;;;1.50;100.00
12969;BME280;6549;53.128;8.182;2024-02-28T02:14:57;101681.59;;;1.55;100.00
12969;BME280;6549;53.128;8.182;2024-02-28T02:17:57;101678.69;;;1.65;100.00
12969;BME280;6549;53.128;8.182;2024-02-28T02:21:04;101678.97;;;1.77;100.00
12969;BME280;6549;53.128;8.182;2024-02-28T02:24:05;101678.19;;;1.77;100.00
12969;BME280;6549;53.128;8.182;2024-02-28T02:27:06;101677.38;;;1.76;100.00
12969;BME280;6549;53.128;8.182;2024-02-28T02:30:06;101690.63;;;1.78;100.00
12969;BME280;6549;53.128;8.182;2024-02-28T02:33:07;101684.69;;;1.90;100.00
12969;BME280;6549;53.128;8.182;2024-02-28T02:36:07;101682.78;;;1.90;100.00
12969;BME280;6549;53.128;8.182;2024-02-28T02:39:08;101683.56;;;1.91;100.00
12969;BME280;6549;53.128;8.182;2024-02-28T02:42:08;101679.19;;;1.81;100.00
12969;BME280;6549;53.128;8.182;2024-02-28T02:45:09;101688.53;;;1.75;100.00
12969;BME280;6549;53.128;8.182;2024-02-28T02:48:10;101679.50;;;1.66;100.00
12969;BME280;6549;53.128;8.182;2024-02-28T02:51:10;101684.31;;;1.69;100.00
12969;BME280;6549;53.128;8.182;2024-02-28T02:54:10;101681.13;;;1.67;100.00
12969;BME280;6549;53.128;8.182;2024-02-28T02:57:11;101689.72;;;1.69;100.00
12969;BME280;6549;53.128;8.182;2024-02-28T03:00:11;101686.19;;;1.82;100.00
12969;BME280;6549;53.128;8.182;2024-02-28T03:03:12;101693.94;;;1.75;100.00
12969;BME280;6549;53.128;8.182;2024-02-28T03:06:12;101702.59;;;1.77;100.00
12969;BME280;6549;53.128;8.182;2024-02-28T03:09:12;101705.41;;;1.72;100.00
12969;BME280;6549;53.128;8.182;2024-02-28T03:12:13;101701.97;;;1.66;100.00
12969;BME280;6549;53.128;8.182;2024-02-28T03:15:13;101705.88;;;1.74;100.00
12969;BME280;6549;53.128;8.182;2024-02-28T03:18:13;101705.88;;;1.74;100.00
12969;BME280;6549;53.128;8.182;2024-02-28T03:21:14;101697.28;;;1.72;100.00
12969;BME280;6549;53.128;8.182;2024-02-28T03:24:14;101699.75;;;1.68;100.00
12969;BME280;6549;53.128;8.182;2024-02-28T03:27:15;101693.56;;;1.68;100.00
12969;BME280;6549;53.128;8.182;2024-02-28T03:30:15;101699.38;;;1.61;100.00
12969;BME280;6549;53.128;8.182;2024-02-28T03:33:16;101692.16;;;1.57;100.00
12969;BME280;6549;53.128;8.182;2024-02-28T03:36:16;101698.19;;;1.67;100.00
12969;BME280;6549;53.128;8.182;2024-02-28T03:39:16;101693.75;;;1.58;100.00
12969;BME280;6549;53.128;8.182;2024-02-28T03:42:17;101697.84;;;1.55;100.00
12969;BME280;6549;53.128;8.182;2024-02-28T03:45:17;101690.63;;;1.64;100.00
12969;BME280;6549;53.128;8.182;2024-02-28T03:48:19;101680.94;;;1.63;100.00
12969;BME280;6549;53.128;8.182;2024-02-28T03:51:20;101692.34;;;1.47;100.00
12969;BME280;6549;53.128;8.182;2024-02-28T03:54:20;101687.25;;;1.45;100.00
12969;BME280;6549;53.128;8.182;2024-02-28T03:57:20;101690.06;;;1.54;100.00
12969;BME280;6549;53.128;8.182;2024-02-28T04:00:21;101688.34;;;1.58;100.00
12969;BME280;6549;53.128;8.182;2024-02-28T04:03:21;101690.88;;;1.41;100.00
12969;BME280;6549;53.128;8.182;2024-02-28T04:06:21;101685.53;;;1.35;100.00
12969;BME280;6549;53.128;8.182;2024-02-28T04:09:22;101693.84;;;1.25;100.00
12969;BME280;6549;53.128;8.182;2024-02-28T04:12:22;101689.16;;;1.45;100.00
12969;BME280;6549;53.128;8.182;2024-02-28T04:15:22;101696.28;;;1.54;100.00
12969;BME280;6549;53.128;8.182;2024-02-28T04:18:25;101683.63;;;1.50;100.00
12969;BME280;6549;53.128;8.182;2024-02-28T04:21:26;101695.38;;;1.45;100.00
12969;BME280;6549;53.128;8.182;2024-02-28T04:24:26;101690.34;;;1.52;100.00
12969;BME280;6549;53.128;8.182;2024-02-28T04:27:27;101681.13;;;1.53;100.00
12969;BME280;6549;53.128;8.182;2024-02-28T04:30:27;101698.66;;;1.56;100.00
12969;BME280;6549;53.128;8.182;2024-02-28T04:33:27;101697.75;;;1.47;100.00
12969;BME280;6549;53.128;8.182;2024-02-28T04:36:27;101691.44;;;1.51;100.00
12969;BME280;6549;53.128;8.182;2024-02-28T04:39:28;101690.03;;;1.67;100.00
12969;BME280;6549;53.128;8.182;2024-02-28T04:42:28;101692.53;;;1.77;100.00
12969;BME280;6549;53.128;8.182;2024-02-28T04:45:28;101698.28;;;1.49;100.00
12969;BME280;6549;53.128;8.182;2024-02-28T04:48:29;101695.47;;;1.67;100.00
12969;BME280;6549;53.128;8.182;2024-02-28T04:51:29;101700.19;;;1.62;100.00
12969;BME280;6549;53.128;8.182;2024-02-28T04:54:29;101701.78;;;1.63;100.00
12969;BME280;6549;53.128;8.182;2024-02-28T04:57:30;101700.06;;;1.67;100.00
12969;BME280;6549;53.128;8.182;2024-02-28T05:00:30;101699.75;;;1.68;100.00
12969;BME280;6549;53.128;8.182;2024-02-28T05:03:30;101700.69;;;1.50;100.00
12969;BME280;6549;53.128;8.182;2024-02-28T05:06:31;101705.50;;;1.67;100.00
12969;BME280;6549;53.128;8.182;2024-02-28T05:09:31;101703.19;;;1.47;100.00
12969;BME280;6549;53.128;8.182;2024-02-28T05:12:31;101704.78;;;1.61;100.00
12969;BME280;6549;53.128;8.182;2024-02-28T05:15:32;101701.06;;;1.71;100.00
12969;BME280;6549;53.128;8.182;2024-02-28T05:18:32;101702.88;;;1.62;100.00
12969;BME280;6549;53.128;8.182;2024-02-28T05:21:39;101707.38;;;1.80;100.00
12969;BME280;6549;53.128;8.182;2024-02-28T05:24:41;101715.25;;;1.54;100.00
12969;BME280;6549;53.128;8.182;2024-02-28T05:27:43;101716.53;;;1.57;100.00
12969;BME280;6549;53.128;8.182;2024-02-28T05:30:43;101712.53;;;1.68;100.00
12969;BME280;6549;53.128;8.182;2024-02-28T05:33:44;101702.78;;;1.67;100.00
12969;BME280;6549;53.128;8.182;2024-02-28T05:36:44;101708.41;;;1.70;100.00
12969;BME280;6549;53.128;8.182;2024-02-28T05:39:44;101717.22;;;1.76;100.00
12969;BME280;6549;53.128;8.182;2024-02-28T05:42:45;101718.94;;;1.86;100.00
12969;BME280;6549;53.128;8.182;2024-02-28T05:45:45;101718.59;;;1.87;100.00
12969;BME280;6549;53.128;8.182;2024-02-28T05:48:46;101728.34;;;1.88;100.00
12969;BME280;6549;53.128;8.182;2024-02-28T05:51:46;101717.22;;;1.76;100.00
12969;BME280;6549;53.128;8.182;2024-02-28T05:54:47;101717.50;;;1.88;100.00
12969;BME280;6549;53.128;8.182;2024-02-28T05:57:48;101716.81;;;1.69;100.00
12969;BME280;6549;53.128;8.182;2024-02-28T06:00:49;101729.38;;;1.78;100.00
12969;BME280;6549;53.128;8.182;2024-02-28T06:03:49;101725.44;;;1.85;100.00
12969;BME280;6549;53.128;8.182;2024-02-28T06:06:50;101729.63;;;1.91;100.00
12969;BME280;6549;53.128;8.182;2024-02-28T06:09:51;101718.84;;;1.63;100.00
12969;BME280;6549;53.128;8.182;2024-02-28T06:12:51;101727.47;;;1.65;100.00
12969;BME280;6549;53.128;8.182;2024-02-28T06:15:52;101724.25;;;1.77;100.00
12969;BME280;6549;53.128;8.182;2024-02-28T06:18:52;101726.25;;;1.71;100.00
12969;BME280;6549;53.128;8.182;2024-02-28T06:21:53;101726.84;;;1.68;100.00
12969;BME280;6549;53.128;8.182;2024-02-28T06:24:53;101731.78;;;1.66;100.00
12969;BME280;6549;53.128;8.182;2024-02-28T06:27:53;101742.91;;;1.78;100.00
12969;BME280;6549;53.128;8.182;2024-02-28T06:30:54;101749.53;;;1.86;100.00
12969;BME280;6549;53.128;8.182;2024-02-28T06:33:54;101751.75;;;1.98;100.00
12969;BME280;6549;53.128;8.182;2024-02-28T06:36:54;101758.16;;;1.88;100.00
12969;BME280;6549;53.128;8.182;2024-02-28T06:39:55;101763.97;;;1.81;100.00
12969;BME280;6549;53.128;8.182;2024-02-28T06:42:55;101776.63;;;1.86;100.00
12969;BME280;6549;53.128;8.182;2024-02-28T06:45:55;101781.66;;;1.93;100.00
12969;BME280;6549;53.128;8.182;2024-02-28T06:48:56;101776.63;;;2.00;100.00
12969;BME280;6549;53.128;8.182;2024-02-28T06:51:56;101782.34;;;1.98;100.00
12969;BME280;6549;53.128;8.182;2024-02-28T06:54:59;101785.88;;;1.99;100.00
12969;BME280;6549;53.128;8.182;2024-02-28T06:58:00;101785.66;;;1.95;100.00
12969;BME280;6549;53.128;8.182;2024-02-28T07:01:01;101793.31;;;1.93;100.00
12969;BME280;6549;53.128;8.182;2024-02-28T07:04:01;101778.66;;;1.94;100.00
12969;BME280;6549;53.128;8.182;2024-02-28T07:07:02;101780.22;;;1.81;100.00
12969;BME280;6549;53.128;8.182;2024-02-28T07:10:03;101781.66;;;2.06;100.00
12969;BME280;6549;53.128;8.182;2024-02-28T07:13:04;101784.97;;;1.76;100.00
12969;BME280;6549;53.128;8.182;2024-02-28T07:16:05;101779.84;;;1.88;100.00
12969;BME280;6549;53.128;8.182;2024-02-28T07:19:06;101787.47;;;2.00;100.00
12969;BME280;6549;53.128;8.182;2024-02-28T07:22:06;101793.50;;;1.83;100.00
12969;BME280;6549;53.128;8.182;2024-02-28T07:25:07;101786.88;;;1.89;100.00
12969;BME280;6549;53.128;8.182;2024-02-28T07:28:08;101785.78;;;1.90;100.00
12969;BME280;6549;53.128;8.182;2024-02-28T07:31:15;101794.09;;;1.80;100.00
12969;BME280;6549;53.128;8.182;2024-02-28T07:34:16;101790.41;;;1.90;100.00
12969;BME280;6549;53.128;8.182;2024-02-28T07:37:16;101797.63;;;1.94;100.00
12969;BME280;6549;53.128;8.182;2024-02-28T07:40:17;101800.44;;;2.03;100.00
12969;BME280;6549;53.128;8.182;2024-02-28T07:43:17;101812.97;;;2.12;100.00
12969;BME280;6549;53.128;8.182;2024-02-28T07:46:17;101810.94;;;2.04;100.00
12969;BME280;6549;53.128;8.182;2024-02-28T07:49:18;101808.25;;;2.04;100.00
12969;BME280;6549;53.128;8.182;2024-02-28T07:52:19;101810.28;;;2.12;100.00
12969;BME280;6549;53.128;8.182;2024-02-28T07:55:19;101810.75;;;2.28;100.00
12969;BME280;6549;53.128;8.182;2024-02-28T07:58:22;101814.75;;;2.31;100.00
12969;BME280;6549;53.128;8.182;2024-02-28T08:01:22;101813.75;;;2.26;100.00
12969;BME280;6549;53.128;8.182;2024-02-28T08:04:22;101812.72;;;2.36;100.00
12969;BME280;6549;53.128;8.182;2024-02-28T08:07:23;101827.59;;;2.39;100.00
12969;BME280;6549;53.128;8.182;2024-02-28T08:10:23;101824.69;;;2.21;100.00
12969;BME280;6549;53.128;8.182;2024-02-28T08:13:24;101823.75;;;2.40;100.00
12969;BME280;6549;53.128;8.182;2024-02-28T08:16:27;101827.91;;;2.23;100.00
12969;BME280;6549;53.128;8.182;2024-02-28T08:19:27;101840.03;;;2.40;100.00
12969;BME280;6549;53.128;8.182;2024-02-28T08:22:27;101837.56;;;2.30;100.00
12969;BME280;6549;53.128;8.182;2024-02-28T08:25:28;101842.47;;;2.41;100.00
12969;BME280;6549;53.128;8.182;2024-02-28T08:28:28;101835.53;;;2.21;100.00
12969;BME280;6549;53.128;8.182;2024-02-28T08:31:28;101831.09;;;2.39;100.00
12969;BME280;6549;53.128;8.182;2024-02-28T08:34:29;101837.53;;;2.43;100.00
12969;BME280;6549;53.128;8.182;2024-02-28T08:37:29;101834.78;;;2.57;100.00
12969;BME280;6549;53.128;8.182;2024-02-28T08:40:29;101831.88;;;2.53;100.00
12969;BME280;6549;53.128;8.182;2024-02-28T08:43:30;101840.88;;;2.76;100.00
12969;BME280;6549;53.128;8.182;2024-02-28T08:46:30;101849.63;;;2.73;100.00
12969;BME280;6549;53.128;8.182;2024-02-28T08:49:31;101845.84;;;2.60;100.00
12969;BME280;6549;53.128;8.182;2024-02-28T08:52:31;101851.34;;;2.69;100.00
12969;BME280;6549;53.128;8.182;2024-02-28T08:55:31;101843.03;;;2.65;100.00
12969;BME280;6549;53.128;8.182;2024-02-28T08:58:32;101850.69;;;2.50;100.00
12969;BME280;6549;53.128;8.182;2024-02-28T09:01:32;101859.72;;;2.59;100.00
12969;BME280;6549;53.128;8.182;2024-02-28T09:04:34;101862.50;;;2.67;100.00
12969;BME280;6549;53.128;8.182;2024-02-28T09:07:34;101864.31;;;2.72;100.00
12969;BME280;6549;53.128;8.182;2024-02-28T09:10:35;101866.69;;;2.87;100.00
12969;BME280;6549;53.128;8.182;2024-02-28T09:13:36;101861.81;;;2.62;100.00
12969;BME280;6549;53.128;8.182;2024-02-28T09:16:36;101864.94;;;2.69;100.00
12969;BME280;6549;53.128;8.182;2024-02-28T09:19:36;101871.13;;;2.83;100.00
12969;BME280;6549;53.128;8.182;2024-02-28T09:22:37;101876.75;;;2.87;100.00
12969;BME280;6549;53.128;8.182;2024-02-28T09:25:38;101888.63;;;2.77;100.00
12969;BME280;6549;53.128;8.182;2024-02-28T09:28:38;101881.69;;;2.71;100.00
12969;BME280;6549;53.128;8.182;2024-02-28T09:31:38;101894.13;;;2.86;100.00
12969;BME280;6549;53.128;8.182;2024-02-28T09:34:39;101896.22;;;2.89;100.00
12969;BME280;6549;53.128;8.182;2024-02-28T09:37:39;101890.50;;;2.90;100.00
12969;BME280;6549;53.128;8.182;2024-02-28T09:40:39;101890.38;;;2.95;100.00
12969;BME280;6549;53.128;8.182;2024-02-28T09:43:41;101888.25;;;2.92;100.00
12969;BME280;6549;53.128;8.182;2024-02-28T09:46:42;101893.00;;;3.00;100.00
12969;BME280;6549;53.128;8.182;2024-02-28T09:49:42;101891.63;;;3.11;100.00
12969;BME280;6549;53.128;8.182;2024-02-28T09:52:43;101887.34;;;2.97;100.00
12969;BME280;6549;53.128;8.182;2024-02-28T09:55:44;101893.81;;;3.01;100.00
12969;BME280;6549;53.128;8.182;2024-02-28T09:58:45;101897.06;;;3.11;100.00
12969;BME280;6549;53.128;8.182;2024-02-28T10:01:48;101888.69;;;3.22;100.00
12969;BME280;6549;53.128;8.182;2024-02-28T10:04:53;101893.66;;;3.06;100.00
12969;BME280;6549;53.128;8.182;2024-02-28T10:07:55;101889.91;;;3.15;100.00
12969;BME280;6549;53.128;8.182;2024-02-28T10:10:56;101889.03;;;3.29;100.00
12969;BME280;6549;53.128;8.182;2024-02-28T10:13:58;101895.91;;;3.26;100.00
12969;BME280;6549;53.128;8.182;2024-02-28T10:16:59;101884.72;;;3.28;100.00
12969;BME280;6549;53.128;8.182;2024-02-28T10:19:59;101889.97;;;3.24;100.00
12969;BME280;6549;53.128;8.182;2024-02-28T10:23:04;101890.03;;;3.33;100.00
12969;BME280;6549;53.128;8.182;2024-02-28T10:26:09;101894.59;;;3.46;100.00
12969;BME280;6549;53.128;8.182;2024-02-28T10:29:09;101894.66;;;3.32;100.00
12969;BME280;6549;53.128;8.182;2024-02-28T10:32:10;101888.91;;;3.11;100.00
12969;BME280;6549;53.128;8.182;2024-02-28T10:35:11;101889.84;;;3.29;100.00
12969;BME280;6549;53.128;8.182;2024-02-28T10:38:13;101898.06;;;3.38;100.00
12969;BME280;6549;53.128;8.182;2024-02-28T10:41:14;101893.63;;;3.42;100.00
12969;BME280;6549;53.128;8.182;2024-02-28T10:44:16;101885.91;;;3.35;100.00
12969;BME280;6549;53.128;8.182;2024-02-28T10:47:16;101892.25;;;3.53;100.00
12969;BME280;6549;53.128;8.182;2024-02-28T10:50:17;101897.38;;;3.54;100.00
12969;BME280;6549;53.128;8.182;2024-02-28T10:53:22;101900.53;;;3.70;100.00
12969;BME280;6549;53.128;8.182;2024-02-28T10:56:28;101898.91;;;3.69;100.00
12969;BME280;6549;53.128;8.182;2024-02-28T10:59:29;101899.00;;;3.86;100.00
12969;BME280;6549;53.128;8.182;2024-02-28T11:02:31;101898.03;;;3.82;100.00
12969;BME280;6549;53.128;8.182;2024-02-28T11:05:39;101899.00;;;3.86;100.00
12969;BME280;6549;53.128;8.182;2024-02-28T11:08:40;101901.13;;;3.89;100.00
12969;BME280;6549;53.128;8.182;2024-02-28T11:11:40;101897.75;;;3.92;100.00
12969;BME280;6549;53.128;8.182;2024-02-28T11:14:41;101894.38;;;3.87;100.00
12969;BME280;6549;53.128;8.182;2024-02-28T11:17:41;101899.38;;;3.93;100.00
12969;BME280;6549;53.128;8.182;2024-02-28T11:20:41;101900.84;;;4.08;100.00
12969;BME280;6549;53.128;8.182;2024-02-28T11:23:47;101904.03;;;4.01;100.00
12969;BME280;6549;53.128;8.182;2024-02-28T11:26:48;101909.34;;;4.06;100.00
12969;BME280;6549;53.128;8.182;2024-02-28T11:29:49;101914.50;;;4.17;100.00
12969;BME280;6549;53.128;8.182;2024-02-28T11:32:52;101912.91;;;4.16;100.00
12969;BME280;6549;53.128;8.182;2024-02-28T11:35:57;101904.28;;;4.22;100.00
12969;BME280;6549;53.128;8.182;2024-02-28T11:38:58;101900.63;;;4.35;100.00
12969;BME280;6549;53.128;8.182;2024-02-28T11:42:14;101896.06;;;4.53;100.00
12969;BME280;6549;53.128;8.182;2024-02-28T11:45:15;101891.56;;;4.57;100.00
12969;BME280;6549;53.128;8.182;2024-02-28T11:48:16;101888.19;;;4.51;100.00
12969;BME280;6549;53.128;8.182;2024-02-28T11:51:16;101893.50;;;4.57;100.00
12969;BME280;6549;53.128;8.182;2024-02-28T11:54:17;101890.63;;;4.70;100.00
12969;BME280;6549;53.128;8.182;2024-02-28T11:57:17;101882.81;;;4.69;100.00
12969;BME280;6549;53.128;8.182;2024-02-28T12:00:18;101880.91;;;4.78;100.00
12969;BME280;6549;53.128;8.182;2024-02-28T12:03:25;101876.56;;;4.94;100.00
12969;BME280;6549;53.128;8.182;2024-02-28T12:06:25;101878.00;;;5.00;100.00
12969;BME280;6549;53.128;8.182;2024-02-28T12:09:26;101879.75;;;4.87;100.00
12969;BME280;6549;53.128;8.182;2024-02-28T12:12:28;101869.34;;;4.89;100.00
12969;BME280;6549;53.128;8.182;2024-02-28T12:15:29;101873.19;;;4.88;100.00
12969;BME280;6549;53.128;8.182;2024-02-28T12:18:29;101869.50;;;4.84;100.00
12969;BME280;6549;53.128;8.182;2024-02-28T12:21:30;101865.03;;;5.06;100.00
12969;BME280;6549;53.128;8.182;2024-02-28T12:24:30;101861.03;;;5.12;100.00
12969;BME280;6549;53.128;8.182;2024-02-28T12:27:30;101856.38;;;5.21;100.00
12969;BME280;6549;53.128;8.182;2024-02-28T12:30:31;101856.34;;;5.38;100.00
12969;BME280;6549;53.128;8.182;2024-02-28T12:33:31;101848.81;;;5.43;100.00
12969;BME280;6549;53.128;8.182;2024-02-28T12:36:32;101847.97;;;5.60;100.00
12969;BME280;6549;53.128;8.182;2024-02-28T12:39:33;101845.22;;;5.60;100.00
12969;BME280;6549;53.128;8.182;2024-02-28T12:42:34;101841.06;;;5.54;100.00
12969;BME280;6549;53.128;8.182;2024-02-28T12:45:34;101836.75;;;5.62;100.00
12969;BME280;6549;53.128;8.182;2024-02-28T12:48:39;101828.97;;;5.72;100.00
12969;BME280;6549;53.128;8.182;2024-02-28T12:51:43;101824.50;;;5.68;100.00
12969;BME280;6549;53.128;8.182;2024-02-28T12:54:44;101826.88;;;5.86;100.00
12969;BME280;6549;53.128;8.182;2024-02-28T12:57:44;101823.78;;;5.97;100.00
12969;BME280;6549;53.128;8.182;2024-02-28T13:00:45;101826.34;;;6.02;100.00
12969;BME280;6549;53.128;8.182;2024-02-28T13:03:45;101822.75;;;6.10;100.00
12969;BME280;6549;53.128;8.182;2024-02-28T13:06:46;101827.56;;;6.13;100.00
12969;BME280;6549;53.128;8.182;2024-02-28T13:09:46;101820.56;;;6.32;100.00
12969;BME280;6549;53.128;8.182;2024-02-28T13:12:46;101827.25;;;6.35;100.00
12969;BME280;6549;53.128;8.182;2024-02-28T13:15:47;101822.59;;;6.36;100.00
12969;BME280;6549;53.128;8.182;2024-02-28T13:18:47;101819.34;;;6.42;100.00
12969;BME280;6549;53.128;8.182;2024-02-28T13:21:47;101817.47;;;6.34;100.00
12969;BME280;6549;53.128;8.182;2024-02-28T13:24:48;101825.47;;;6.39;100.00
12969;BME280;6549;53.128;8.182;2024-02-28T13:27:48;101826.94;;;6.37;100.00
12969;BME280;6549;53.128;8.182;2024-02-28T13:30:48;101817.66;;;6.29;100.00
12969;BME280;6549;53.128;8.182;2024-02-28T13:33:49;101817.59;;;6.38;100.00
12969;BME280;6549;53.128;8.182;2024-02-28T13:36:49;101822.00;;;6.51;100.00
12969;BME280;6549;53.128;8.182;2024-02-28T13:39:50;101812.38;;;6.53;100.00
12969;BME280;6549;53.128;8.182;2024-02-28T13:42:52;101811.44;;;6.49;100.00
12969;BME280;6549;53.128;8.182;2024-02-28T13:45:53;101811.09;;;6.51;100.00
12969;BME280;6549;53.128;8.182;2024-02-28T13:48:55;101812.44;;;6.45;100.00
12969;BME280;6549;53.128;8.182;2024-02-28T13:51:55;101811.56;;;6.53;100.00
12969;BME280;6549;53.128;8.182;2024-02-28T13:54:56;101811.88;;;6.51;100.00
12969;BME280;6549;53.128;8.182;2024-02-28T13:57:56;101811.38;;;6.37;100.00
12969;BME280;6549;53.128;8.182;2024-02-28T14:00:57;101816.03;;;6.57;100.00
12969;BME280;6549;53.128;8.182;2024-02-28T14:03:58;101802.13;;;6.50;100.00
12969;BME280;6549;53.128;8.182;2024-02-28T14:06:58;101808.09;;;6.64;100.00
12969;BME280;6549;53.128;8.182;2024-02-28T14:09:58;101806.47;;;6.72;100.00
12969;BME280;6549;53.128;8.182;2024-02-28T14:13:00;101805.31;;;6.73;100.00
12969;BME280;6549;53.128;8.182;2024-02-28T14:16:00;101795.09;;;6.82;100.00
12969;BME280;6549;53.128;8.182;2024-02-28T14:19:02;101789.78;;;6.86;100.00
12969;BME280;6549;53.128;8.182;2024-02-28T14:22:03;101784.81;;;7.00;100.00
12969;BME280;6549;53.128;8.182;2024-02-28T14:25:04;101791.09;;;7.00;100.00
12969;BME280;6549;53.128;8.182;2024-02-28T14:28:05;101791.44;;;6.78;100.00
12969;BME280;6549;53.128;8.182;2024-02-28T14:31:05;101792.66;;;6.89;100.00
12969;BME280;6549;53.128;8.182;2024-02-28T14:34:05;101787.09;;;6.98;100.00
12969;BME280;6549;53.128;8.182;2024-02-28T14:37:06;101792.53;;;6.86;100.00
12969;BME280;6549;53.128;8.182;2024-02-28T14:40:08;101794.78;;;6.84;100.00
12969;BME280;6549;53.128;8.182;2024-02-28T14:43:11;101791.13;;;6.80;100.00
12969;BME280;6549;53.128;8.182;2024-02-28T14:46:11;101795.25;;;6.65;100.00
12969;BME280;6549;53.128;8.182;2024-02-28T14:49:12;101789.72;;;6.73;100.00
12969;BME280;6549;53.128;8.182;2024-02-28T14:52:12;101792.91;;;6.75;100.00
12969;BME280;6549;53.128;8.182;2024-02-28T14:55:13;101797.66;;;6.66;100.00
12969;BME280;6549;53.128;8.182;2024-02-28T14:58:14;101790.59;;;6.65;100.00
12969;BME280;6549;53.128;8.182;2024-02-28T15:01:14;101792.25;;;6.58;100.00
12969;BME280;6549;53.128;8.182;2024-02-28T15:04:14;101795.91;;;6.62;100.00
12969;BME280;6549;53.128;8.182;2024-02-28T15:07:16;101791.25;;;6.62;100.00
12969;BME280;6549;53.128;8.182;2024-02-28T15:10:16;101788.34;;;6.67;100.00
12969;BME280;6549;53.128;8.182;2024-02-28T15:13:16;101788.84;;;6.61;100.00
12969;BME280;6549;53.128;8.182;2024-02-28T15:16:17;101781.06;;;6.71;100.00
12969;BME280;6549;53.128;8.182;2024-02-28T15:19:20;101778.34;;;6.71;100.00
12969;BME280;6549;53.128;8.182;2024-02-28T15:22:20;101787.13;;;6.77;100.00
12969;BME280;6549;53.128;8.182;2024-02-28T15:25:21;101775.31;;;6.64;100.00
12969;BME280;6549;53.128;8.182;2024-02-28T15:28:21;101775.13;;;6.69;100.00
12969;BME280;6549;53.128;8.182;2024-02-28T15:31:23;101775.31;;;6.64;100.00
12969;BME280;6549;53.128;8.182;2024-02-28T15:34:24;101777.66;;;6.74;100.00
12969;BME280;6549;53.128;8.182;2024-02-28T15:37:24;101765.28;;;6.77;100.00
12969;BME280;6549;53.128;8.182;2024-02-28T15:40:25;101776.31;;;6.60;100.00
12969;BME280;6549;53.128;8.182;2024-02-28T15:43:26;101767.81;;;6.61;100.00
12969;BME280;6549;53.128;8.182;2024-02-28T15:46:30;101770.03;;;6.68;100.00
12969;BME280;6549;53.128;8.182;2024-02-28T15:49:30;101770.94;;;6.72;100.00
12969;BME280;6549;53.128;8.182;2024-02-28T15:52:30;101764.56;;;6.68;100.00
12969;BME280;6549;53.128;8.182;2024-02-28T15:55:31;101764.06;;;6.66;100.00
12969;BME280;6549;53.128;8.182;2024-02-28T15:58:32;101761.03;;;6.67;100.00